createdAt,value
2023-05-23T00:00:10.106Z,0.00
2023-05-23T00:01:10.105Z,0.00
2023-05-23T00:02:10.110Z,0.00
2023-05-23T00:03:10.244Z,0.00
2023-05-23T00:04:10.084Z,0.00
2023-05-23T00:05:10.036Z,0.00
2023-05-23T00:06:10.036Z,0.00
2023-05-23T00:07:10.025Z,0.00
2023-05-23T00:08:10.008Z,0.00
2023-05-23T00:09:10.109Z,0.00
2023-05-23T00:10:09.990Z,0.00
2023-05-23T00:11:09.980Z,0.00
2023-05-23T00:12:09.956Z,0.00
2023-05-23T00:13:09.940Z,0.00
2023-05-23T00:14:09.934Z,0.00
2023-05-23T00:15:09.946Z,0.00
2023-05-23T00:16:09.929Z,0.00
2023-05-23T00:17:09.958Z,0.00
2023-05-23T00:18:09.889Z,0.00
2023-05-23T00:19:09.977Z,0.00
2023-05-23T00:20:09.867Z,0.00
2023-05-23T00:21:09.856Z,0.00
2023-05-23T00:22:09.860Z,0.00
2023-05-23T00:23:09.847Z,0.00
2023-05-23T00:24:09.825Z,0.00
2023-05-23T00:25:09.940Z,0.00
2023-05-23T00:26:09.797Z,0.00
2023-05-23T00:27:09.793Z,0.00
2023-05-23T00:28:09.809Z,0.00
2023-05-23T00:29:09.760Z,0.00
2023-05-23T00:30:09.757Z,0.00
2023-05-23T00:31:09.827Z,0.00
2023-05-23T00:32:09.733Z,0.00
2023-05-23T00:33:09.744Z,0.00
2023-05-23T00:34:09.709Z,0.00
2023-05-23T00:35:09.708Z,0.00
2023-05-23T00:36:09.688Z,0.00
2023-05-23T00:37:09.675Z,0.00
2023-05-23T00:38:09.662Z,0.00
2023-05-23T00:39:09.656Z,0.00
2023-05-23T00:40:09.686Z,0.00
2023-05-23T00:41:09.766Z,0.00
2023-05-23T00:42:09.632Z,0.00
2023-05-23T00:43:09.649Z,0.00
2023-05-23T00:44:09.604Z,0.00
2023-05-23T00:45:09.610Z,0.00
2023-05-23T00:46:09.596Z,0.00
2023-05-23T00:47:09.564Z,0.00
2023-05-23T00:48:09.552Z,0.00
2023-05-23T00:49:09.540Z,0.00
2023-05-23T00:50:09.536Z,0.00
2023-05-23T00:51:09.529Z,0.00
2023-05-23T00:52:09.519Z,0.00
2023-05-23T00:53:09.504Z,0.00
2023-05-23T00:54:09.482Z,0.00
2023-05-23T00:55:09.471Z,0.00
2023-05-23T00:56:09.514Z,0.00
2023-05-23T00:57:09.565Z,0.00
2023-05-23T00:58:09.446Z,0.00
2023-05-23T00:59:09.417Z,0.00
2023-05-23T01:00:09.419Z,0.00
2023-05-23T01:01:09.412Z,0.00
2023-05-23T01:02:09.415Z,0.00
2023-05-23T01:03:09.446Z,0.00
2023-05-23T01:04:09.522Z,0.00
2023-05-23T01:05:09.358Z,0.00
2023-05-23T01:06:09.362Z,0.00
2023-05-23T01:07:09.360Z,0.00
2023-05-23T01:08:09.318Z,0.00
2023-05-23T01:09:09.304Z,0.00
2023-05-23T01:10:09.296Z,0.00
2023-05-23T01:11:09.315Z,0.00
2023-05-23T01:12:09.284Z,0.00
2023-05-23T01:13:09.372Z,0.00
2023-05-23T01:14:09.252Z,0.00
2023-05-23T01:15:09.238Z,0.00
2023-05-23T01:16:09.249Z,0.00
2023-05-23T01:17:09.222Z,0.00
2023-05-23T01:18:09.239Z,0.00
2023-05-23T01:19:09.211Z,0.00
2023-05-23T01:20:09.204Z,0.00
2023-05-23T01:21:09.168Z,0.00
2023-05-23T01:22:09.174Z,0.00
2023-05-23T01:23:09.145Z,0.00
2023-05-23T01:24:09.134Z,0.00
2023-05-23T01:25:09.119Z,0.00
2023-05-23T01:26:09.119Z,0.00
2023-05-23T01:27:09.111Z,0.00
2023-05-23T01:28:09.090Z,0.00
2023-05-23T01:29:09.193Z,0.00
2023-05-23T01:30:09.061Z,0.00
2023-05-23T01:31:09.051Z,0.00
2023-05-23T01:32:09.082Z,0.00
2023-05-23T01:33:09.070Z,0.00
2023-05-23T01:34:09.016Z,0.00
2023-05-23T01:35:08.999Z,0.00
2023-05-23T01:36:08.999Z,0.00
2023-05-23T01:37:08.986Z,0.00
2023-05-23T01:38:09.014Z,0.00
2023-05-23T01:39:08.958Z,0.00
2023-05-23T01:40:08.950Z,0.00
2023-05-23T01:41:08.950Z,0.00
2023-05-23T01:42:08.929Z,0.00
2023-05-23T01:43:08.953Z,0.00
2023-05-23T01:44:08.912Z,0.00
2023-05-23T01:45:09.013Z,0.00
2023-05-23T01:46:08.976Z,0.00
2023-05-23T01:47:08.890Z,0.00
2023-05-23T01:48:08.937Z,0.00
2023-05-23T01:49:08.904Z,0.00
2023-05-23T01:50:08.839Z,0.00
2023-05-23T01:51:08.822Z,0.00
2023-05-23T01:52:08.814Z,0.00
2023-05-23T01:53:08.819Z,0.00
2023-05-23T01:54:08.791Z,0.00
2023-05-23T01:55:08.798Z,0.00
2023-05-23T01:56:08.765Z,0.00
2023-05-23T01:57:08.753Z,0.00
2023-05-23T01:58:08.770Z,0.00
2023-05-23T01:59:08.736Z,0.00
2023-05-23T02:00:08.728Z,0.00
2023-05-23T02:01:08.873Z,0.00
2023-05-23T02:02:08.747Z,0.00
2023-05-23T02:03:08.802Z,0.00
2023-05-23T02:04:08.676Z,0.00
2023-05-23T02:05:08.683Z,0.00
2023-05-23T02:06:08.664Z,0.00
2023-05-23T02:07:08.644Z,0.00
2023-05-23T02:08:08.637Z,0.00
2023-05-23T02:09:08.637Z,0.00
2023-05-23T02:10:08.614Z,0.00
2023-05-23T02:11:08.601Z,0.00
2023-05-23T02:12:08.596Z,0.00
2023-05-23T02:13:08.578Z,0.00
2023-05-23T02:14:08.572Z,0.00
2023-05-23T02:15:08.576Z,0.00
2023-05-23T02:16:08.547Z,0.00
2023-05-23T02:17:08.750Z,0.00
2023-05-23T02:18:08.596Z,0.00
2023-05-23T02:19:08.720Z,0.00
2023-05-23T02:20:08.532Z,0.00
2023-05-23T02:21:08.518Z,0.00
2023-05-23T02:22:08.475Z,0.00
2023-05-23T02:23:08.462Z,0.00
2023-05-23T02:24:08.482Z,0.00
2023-05-23T02:25:08.467Z,0.00
2023-05-23T02:26:08.445Z,0.00
2023-05-23T02:27:08.424Z,0.00
2023-05-23T02:28:08.406Z,0.00
2023-05-23T02:29:08.398Z,0.00
2023-05-23T02:30:08.399Z,0.00
2023-05-23T02:31:08.441Z,0.00
2023-05-23T02:32:08.376Z,0.00
2023-05-23T02:33:08.507Z,0.00
2023-05-23T02:34:08.347Z,0.00
2023-05-23T02:35:08.332Z,0.00
2023-05-23T02:36:08.323Z,0.00
2023-05-23T02:37:08.323Z,0.00
2023-05-23T02:38:08.299Z,0.00
2023-05-23T02:39:08.294Z,0.00
2023-05-23T02:40:08.286Z,0.00
2023-05-23T02:41:08.258Z,0.00
2023-05-23T02:42:08.249Z,0.00
2023-05-23T02:43:08.236Z,0.00
2023-05-23T02:44:08.236Z,0.00
2023-05-23T02:45:08.225Z,0.00
2023-05-23T02:46:08.280Z,0.00
2023-05-23T02:47:08.198Z,0.00
2023-05-23T02:48:08.303Z,0.00
2023-05-23T02:49:08.316Z,0.00
2023-05-23T02:50:08.165Z,0.00
2023-05-23T02:51:08.156Z,0.00
2023-05-23T02:52:08.151Z,0.00
2023-05-23T02:53:08.116Z,0.00
2023-05-23T02:54:08.111Z,0.00
2023-05-23T02:55:08.097Z,0.00
2023-05-23T02:56:08.113Z,0.00
2023-05-23T02:57:08.128Z,0.00
2023-05-23T02:58:08.063Z,0.00
2023-05-23T02:59:08.047Z,0.00
2023-05-23T03:00:08.043Z,0.00
2023-05-23T03:01:08.362Z,0.00
2023-05-23T03:02:08.130Z,0.00
2023-05-23T03:03:08.128Z,0.00
2023-05-23T03:04:08.051Z,0.00
2023-05-23T03:05:08.096Z,0.00
2023-05-23T03:06:07.963Z,0.00
2023-05-23T03:08:07.952Z,0.00
2023-05-23T03:09:07.934Z,0.00
2023-05-23T03:10:07.927Z,0.00
2023-05-23T03:11:07.905Z,0.00
2023-05-23T03:12:07.894Z,0.00
2023-05-23T03:13:07.886Z,0.00
2023-05-23T03:14:07.900Z,0.00
2023-05-23T03:15:07.884Z,0.00
2023-05-23T03:16:07.885Z,0.00
2023-05-23T03:17:07.872Z,0.00
2023-05-23T03:18:07.862Z,0.00
2023-05-23T03:19:07.832Z,0.00
2023-05-23T03:20:07.810Z,0.00
2023-05-23T03:21:07.942Z,0.00
2023-05-23T03:22:07.789Z,0.00
2023-05-23T03:23:07.783Z,0.00
2023-05-23T03:24:07.762Z,0.00
2023-05-23T03:25:07.772Z,0.00
2023-05-23T03:26:07.762Z,0.00
2023-05-23T03:27:07.733Z,0.00
2023-05-23T03:28:07.715Z,0.00
2023-05-23T03:29:07.710Z,0.00
2023-05-23T03:30:07.697Z,0.00
2023-05-23T03:31:07.699Z,0.00
2023-05-23T03:32:07.730Z,0.00
2023-05-23T03:33:07.802Z,0.00
2023-05-23T03:34:07.660Z,0.00
2023-05-23T03:35:07.666Z,0.00
2023-05-23T03:36:07.641Z,0.00
2023-05-23T03:37:07.737Z,0.00
2023-05-23T03:38:07.617Z,0.00
2023-05-23T03:39:07.593Z,0.00
2023-05-23T03:40:07.584Z,0.00
2023-05-23T03:41:07.582Z,0.00
2023-05-23T03:42:07.559Z,0.00
2023-05-23T03:43:07.549Z,0.00
2023-05-23T03:44:07.536Z,0.00
2023-05-23T03:45:07.523Z,0.00
2023-05-23T03:46:07.588Z,0.00
2023-05-23T03:47:07.513Z,0.00
2023-05-23T03:48:07.536Z,0.00
2023-05-23T03:49:07.474Z,0.00
2023-05-23T03:50:07.462Z,0.00
2023-05-23T03:51:07.473Z,0.00
2023-05-23T03:52:07.453Z,0.00
2023-05-23T03:53:07.561Z,0.00
2023-05-23T03:54:07.430Z,0.00
2023-05-23T03:55:07.425Z,0.00
2023-05-23T03:56:07.426Z,0.00
2023-05-23T03:57:07.396Z,0.00
2023-05-23T03:58:07.375Z,0.00
2023-05-23T03:59:07.356Z,0.00
2023-05-23T04:00:07.349Z,0.00
2023-05-23T04:01:07.344Z,0.00
2023-05-23T04:02:07.394Z,0.00
2023-05-23T04:03:07.520Z,0.00
2023-05-23T04:04:07.341Z,0.00
2023-05-23T04:05:07.295Z,0.00
2023-05-23T04:06:07.281Z,0.00
2023-05-23T04:07:07.265Z,0.00
2023-05-23T04:08:07.283Z,0.00
2023-05-23T04:09:07.403Z,0.00
2023-05-23T04:10:07.256Z,0.00
2023-05-23T04:11:07.216Z,0.00
2023-05-23T04:12:07.209Z,0.00
2023-05-23T04:13:07.231Z,0.00
2023-05-23T04:14:07.192Z,0.00
2023-05-23T04:15:07.177Z,0.00
2023-05-23T04:16:07.217Z,0.00
2023-05-23T04:17:07.154Z,0.00
2023-05-23T04:18:07.190Z,0.00
2023-05-23T04:19:07.172Z,0.00
2023-05-23T04:20:07.144Z,0.00
2023-05-23T04:21:07.132Z,0.00
2023-05-23T04:22:07.122Z,0.00
2023-05-23T04:23:07.124Z,0.00
2023-05-23T04:24:07.111Z,0.00
2023-05-23T04:25:07.193Z,0.00
2023-05-23T04:26:07.065Z,0.00
2023-05-23T04:27:07.089Z,0.00
2023-05-23T04:28:07.045Z,0.00
2023-05-23T04:29:07.043Z,0.00
2023-05-23T04:30:07.029Z,0.00
2023-05-23T04:31:07.065Z,0.00
2023-05-23T04:32:07.004Z,0.00
2023-05-23T04:33:07.026Z,0.00
2023-05-23T04:34:06.968Z,0.00
2023-05-23T04:35:06.957Z,0.00
2023-05-23T04:36:06.943Z,0.00
2023-05-23T04:37:06.963Z,0.00
2023-05-23T04:38:06.926Z,0.00
2023-05-23T04:39:06.924Z,0.00
2023-05-23T04:40:06.902Z,0.00
2023-05-23T04:41:07.037Z,0.00
2023-05-23T04:42:06.896Z,0.00
2023-05-23T04:43:06.872Z,0.00
2023-05-23T04:44:06.877Z,0.00
2023-05-23T04:45:06.856Z,0.00
2023-05-23T04:46:06.840Z,0.00
2023-05-23T04:47:06.848Z,0.00
2023-05-23T04:48:06.860Z,0.00
2023-05-23T04:49:06.855Z,0.00
2023-05-23T04:50:06.793Z,0.00
2023-05-23T04:51:06.783Z,0.00
2023-05-23T04:52:06.766Z,0.00
2023-05-23T04:53:06.783Z,0.00
2023-05-23T04:54:06.761Z,0.00
2023-05-23T04:55:06.756Z,0.00
2023-05-23T04:56:06.725Z,0.00
2023-05-23T04:57:06.861Z,0.00
2023-05-23T04:58:06.701Z,0.00
2023-05-23T04:59:06.707Z,0.00
2023-05-23T05:00:06.704Z,0.00
2023-05-23T05:01:06.717Z,0.00
2023-05-23T05:02:06.653Z,0.00
2023-05-23T05:03:06.704Z,0.00
2023-05-23T05:04:06.689Z,0.00
2023-05-23T05:05:06.654Z,0.00
2023-05-23T05:06:06.606Z,0.00
2023-05-23T05:07:06.630Z,0.00
2023-05-23T05:08:06.585Z,0.00
2023-05-23T05:09:06.606Z,0.00
2023-05-23T05:10:06.566Z,0.00
2023-05-23T05:11:06.563Z,0.00
2023-05-23T05:12:06.542Z,0.00
2023-05-23T05:13:06.674Z,0.00
2023-05-23T05:14:06.521Z,0.00
2023-05-23T05:15:06.517Z,0.00
2023-05-23T05:16:06.526Z,0.00
2023-05-23T05:17:06.515Z,0.00
2023-05-23T05:18:06.515Z,0.00
2023-05-23T05:19:06.505Z,0.00
2023-05-23T05:20:06.446Z,0.00
2023-05-23T05:21:06.527Z,0.00
2023-05-23T05:22:06.447Z,0.00
2023-05-23T05:23:06.422Z,0.00
2023-05-23T05:24:06.405Z,0.00
2023-05-23T05:25:06.419Z,0.00
2023-05-23T05:26:06.408Z,0.00
2023-05-23T05:27:06.413Z,0.00
2023-05-23T05:28:06.384Z,0.00
2023-05-23T05:29:06.474Z,0.00
2023-05-23T05:30:06.336Z,0.00
2023-05-23T05:31:06.369Z,0.00
2023-05-23T05:32:06.322Z,0.00
2023-05-23T05:33:06.708Z,0.00
2023-05-23T05:34:06.295Z,0.00
2023-05-23T05:35:06.299Z,0.00
2023-05-23T05:36:06.271Z,0.00
2023-05-23T05:37:06.285Z,0.00
2023-05-23T05:38:06.245Z,0.00
2023-05-23T05:39:06.255Z,0.00
2023-05-23T05:40:06.251Z,0.00
2023-05-23T05:41:08.203Z,0.00
2023-05-23T05:42:06.259Z,0.00
2023-05-23T05:43:06.198Z,0.00
2023-05-23T05:44:06.205Z,0.00
2023-05-23T05:45:06.286Z,0.00
2023-05-23T05:46:06.212Z,0.00
2023-05-23T05:47:06.164Z,0.00
2023-05-23T05:48:06.233Z,0.00
2023-05-23T05:49:06.137Z,0.00
2023-05-23T05:50:06.124Z,0.00
2023-05-23T05:51:06.126Z,0.00
2023-05-23T05:52:06.101Z,0.00
2023-05-23T05:53:06.084Z,0.00
2023-05-23T05:54:06.070Z,0.00
2023-05-23T05:55:06.075Z,0.00
2023-05-23T05:56:06.068Z,0.00
2023-05-23T05:57:06.052Z,0.00
2023-05-23T05:58:06.021Z,0.00
2023-05-23T05:59:06.022Z,0.00
2023-05-23T06:00:06.017Z,5.62
2023-05-23T06:01:06.146Z,5.62
2023-05-23T06:02:05.997Z,5.62
2023-05-23T06:03:06.063Z,5.62
2023-05-23T06:04:06.085Z,5.62
2023-05-23T06:05:05.966Z,0.00
2023-05-23T06:06:05.942Z,0.00
2023-05-23T06:07:05.930Z,0.00
2023-05-23T06:08:05.932Z,0.00
2023-05-23T06:09:05.902Z,0.00
2023-05-23T06:10:05.904Z,0.00
2023-05-23T06:11:05.882Z,0.00
2023-05-23T06:12:05.869Z,0.00
2023-05-23T06:13:05.871Z,0.00
2023-05-23T06:14:05.875Z,0.00
2023-05-23T06:15:05.839Z,0.00
2023-05-23T06:16:05.863Z,0.00
2023-05-23T06:17:05.937Z,0.00
2023-05-23T06:18:05.899Z,0.00
2023-05-23T06:19:05.846Z,0.00
2023-05-23T06:20:05.787Z,0.00
2023-05-23T06:21:05.780Z,0.00
2023-05-23T06:22:05.758Z,0.00
2023-05-23T06:23:05.794Z,0.00
2023-05-23T06:24:05.741Z,0.00
2023-05-23T06:25:05.744Z,5.62
2023-05-23T06:26:05.718Z,5.62
2023-05-23T06:27:05.726Z,5.62
2023-05-23T06:28:05.691Z,5.62
2023-05-23T06:29:05.689Z,5.62
2023-05-23T06:30:05.688Z,5.62
2023-05-23T06:31:05.669Z,5.62
2023-05-23T06:32:05.717Z,5.62
2023-05-23T06:33:05.803Z,5.62
2023-05-23T06:34:05.637Z,5.62
2023-05-23T06:35:05.611Z,5.62
2023-05-23T06:36:05.699Z,5.62
2023-05-23T06:37:05.609Z,5.62
2023-05-23T06:38:05.574Z,5.62
2023-05-23T06:39:05.589Z,5.62
2023-05-23T06:40:05.564Z,5.62
2023-05-23T06:41:05.547Z,5.62
2023-05-23T06:42:05.556Z,5.62
2023-05-23T06:43:05.521Z,5.62
2023-05-23T06:44:05.520Z,5.62
2023-05-23T06:45:05.497Z,5.62
2023-05-23T06:46:05.601Z,5.62
2023-05-23T06:47:05.509Z,5.62
2023-05-23T06:48:05.520Z,5.62
2023-05-23T06:49:14.234Z,5.62
2023-05-23T06:50:06.444Z,5.62
2023-05-23T06:51:05.499Z,5.62
2023-05-23T06:52:05.413Z,5.62
2023-05-23T06:53:05.434Z,5.62
2023-05-23T06:54:05.407Z,5.62
2023-05-23T06:55:05.397Z,5.62
2023-05-23T06:56:05.370Z,5.62
2023-05-23T06:57:05.383Z,5.62
2023-05-23T06:58:05.342Z,5.62
2023-05-23T06:59:05.346Z,5.62
2023-05-23T07:00:05.327Z,5.62
2023-05-23T07:01:05.370Z,5.62
2023-05-23T07:02:05.303Z,5.62
2023-05-23T07:03:05.336Z,5.62
2023-05-23T07:04:05.282Z,5.62
2023-05-23T07:05:05.520Z,5.62
2023-05-23T07:06:05.268Z,5.62
2023-05-23T07:07:05.251Z,5.62
2023-05-23T07:08:05.256Z,5.62
2023-05-23T07:09:05.251Z,5.62
2023-05-23T07:10:05.209Z,5.62
2023-05-23T07:11:05.201Z,5.62
2023-05-23T07:12:05.192Z,5.62
2023-05-23T07:13:05.186Z,5.62
2023-05-23T07:14:05.211Z,5.62
2023-05-23T07:15:05.161Z,5.62
2023-05-23T07:16:05.152Z,11.25
2023-05-23T07:17:05.178Z,5.62
2023-05-23T07:18:05.156Z,5.62
2023-05-23T07:19:05.212Z,5.62
2023-05-23T07:20:05.128Z,5.62
2023-05-23T07:21:05.309Z,5.62
2023-05-23T07:22:05.089Z,11.25
2023-05-23T07:23:05.065Z,5.62
2023-05-23T07:24:05.051Z,5.62
2023-05-23T07:25:05.044Z,5.62
2023-05-23T07:26:05.073Z,5.62
2023-05-23T07:27:05.033Z,5.62
2023-05-23T07:28:05.010Z,5.62
2023-05-23T07:29:05.005Z,5.62
2023-05-23T07:30:04.981Z,5.62
2023-05-23T07:31:05.029Z,5.62
2023-05-23T07:32:04.981Z,5.62
2023-05-23T07:33:05.045Z,5.62
2023-05-23T07:34:04.937Z,5.62
2023-05-23T07:35:04.934Z,11.25
2023-05-23T07:36:04.941Z,11.25
2023-05-23T07:37:04.936Z,11.25
2023-05-23T07:38:05.304Z,5.62
2023-05-23T07:39:04.892Z,5.62
2023-05-23T07:40:04.949Z,5.62
2023-05-23T07:41:11.536Z,5.62
2023-05-23T07:42:05.849Z,5.62
2023-05-23T07:43:04.846Z,5.62
2023-05-23T07:44:04.858Z,5.62
2023-05-23T07:45:04.830Z,5.62
2023-05-23T07:46:04.894Z,5.62
2023-05-23T07:47:04.945Z,5.62
2023-05-23T07:48:04.841Z,5.62
2023-05-23T07:49:04.768Z,5.62
2023-05-23T07:50:04.781Z,5.62
2023-05-23T07:51:04.758Z,5.62
2023-05-23T07:52:04.767Z,11.25
2023-05-23T07:53:04.748Z,11.25
2023-05-23T07:54:04.751Z,11.25
2023-05-23T07:55:04.736Z,11.25
2023-05-23T07:56:04.697Z,11.25
2023-05-23T07:57:04.686Z,11.25
2023-05-23T07:58:04.741Z,11.25
2023-05-23T07:59:04.671Z,11.25
2023-05-23T08:00:04.650Z,11.25
2023-05-23T08:01:04.640Z,11.25
2023-05-23T08:02:04.683Z,11.25
2023-05-23T08:03:04.641Z,11.25
2023-05-23T08:04:04.657Z,11.25
2023-05-23T08:05:04.586Z,11.25
2023-05-23T08:06:04.583Z,11.25
2023-05-23T08:07:06.072Z,11.25
2023-05-23T08:08:04.596Z,16.88
2023-05-23T08:09:04.572Z,22.50
2023-05-23T08:10:04.544Z,16.88
2023-05-23T08:11:04.525Z,16.88
2023-05-23T08:12:04.537Z,16.88
2023-05-23T08:13:04.509Z,11.25
2023-05-23T08:14:04.508Z,11.25
2023-05-23T08:15:04.485Z,11.25
2023-05-23T08:16:04.508Z,11.25
2023-05-23T08:17:04.575Z,11.25
2023-05-23T08:18:04.651Z,11.25
2023-05-23T08:19:04.446Z,11.25
2023-05-23T08:20:04.454Z,11.25
2023-05-23T08:21:04.418Z,11.25
2023-05-23T08:22:04.401Z,11.25
2023-05-23T08:23:04.391Z,11.25
2023-05-23T08:24:04.384Z,11.25
2023-05-23T08:25:04.406Z,11.25
2023-05-23T08:26:04.384Z,11.25
2023-05-23T08:27:04.347Z,11.25
2023-05-23T08:28:04.419Z,16.88
2023-05-23T08:29:04.328Z,22.50
2023-05-23T08:30:04.319Z,22.50
2023-05-23T08:31:04.316Z,22.50
2023-05-23T08:32:04.342Z,22.50
2023-05-23T08:33:04.315Z,22.50
2023-05-23T08:34:04.298Z,22.50
2023-05-23T08:35:04.264Z,16.88
2023-05-23T08:36:04.268Z,16.88
2023-05-23T08:37:04.238Z,16.88
2023-05-23T08:38:04.286Z,16.88
2023-05-23T08:39:04.213Z,16.88
2023-05-23T08:40:04.221Z,11.25
2023-05-23T08:41:04.433Z,11.25
2023-05-23T08:42:04.217Z,11.25
2023-05-23T08:43:04.215Z,11.25
2023-05-23T08:44:04.318Z,11.25
2023-05-23T08:45:04.143Z,11.25
2023-05-23T08:46:04.213Z,11.25
2023-05-23T08:47:04.122Z,11.25
2023-05-23T08:48:04.387Z,11.25
2023-05-23T08:49:04.104Z,11.25
2023-05-23T08:50:04.114Z,11.25
2023-05-23T08:51:04.112Z,11.25
2023-05-23T08:52:04.073Z,11.25
2023-05-23T08:53:04.132Z,16.88
2023-05-23T08:54:04.072Z,22.50
2023-05-23T08:55:05.733Z,28.12
2023-05-23T08:56:04.033Z,39.38
2023-05-23T08:57:04.029Z,39.38
2023-05-23T08:58:04.049Z,45.00
2023-05-23T08:59:04.011Z,50.62
2023-05-23T09:00:06.251Z,50.62
2023-05-23T09:01:04.066Z,50.62
2023-05-23T09:02:03.981Z,50.62
2023-05-23T09:03:04.023Z,45.00
2023-05-23T09:04:04.048Z,39.38
2023-05-23T09:05:03.926Z,33.75
2023-05-23T09:06:03.984Z,33.75
2023-05-23T09:07:03.916Z,28.12
2023-05-23T09:08:03.893Z,28.12
2023-05-23T09:09:03.876Z,28.12
2023-05-23T09:10:03.875Z,28.12
2023-05-23T09:11:03.859Z,28.12
2023-05-23T09:12:03.854Z,22.50
2023-05-23T09:13:03.853Z,22.50
2023-05-23T09:14:03.832Z,28.12
2023-05-23T09:15:03.841Z,28.12
2023-05-23T09:16:03.856Z,33.75
2023-05-23T09:17:04.713Z,33.75
2023-05-23T09:18:03.832Z,28.12
2023-05-23T09:19:03.775Z,28.12
2023-05-23T09:20:03.763Z,22.50
2023-05-23T09:21:03.747Z,28.12
2023-05-23T09:22:03.739Z,33.75
2023-05-23T09:23:03.905Z,28.12
2023-05-23T09:24:03.705Z,33.75
2023-05-23T09:25:03.751Z,33.75
2023-05-23T09:26:03.681Z,33.75
2023-05-23T09:27:03.677Z,45.00
2023-05-23T09:28:03.689Z,39.38
2023-05-23T09:29:03.684Z,39.38
2023-05-23T09:30:03.643Z,33.75
2023-05-23T09:31:03.641Z,39.38
2023-05-23T09:32:03.804Z,45.00
2023-05-23T09:33:05.841Z,50.62
2023-05-23T09:34:03.604Z,56.25
2023-05-23T09:35:03.595Z,56.25
2023-05-23T09:36:03.571Z,56.25
2023-05-23T09:37:03.581Z,50.62
2023-05-23T09:38:03.557Z,45.00
2023-05-23T09:39:03.557Z,39.38
2023-05-23T09:40:03.584Z,39.38
2023-05-23T09:41:03.523Z,45.00
2023-05-23T09:42:03.506Z,50.62
2023-05-23T09:43:03.490Z,45.00
2023-05-23T09:44:03.489Z,45.00
2023-05-23T09:45:04.759Z,39.38
2023-05-23T09:46:03.467Z,39.38
2023-05-23T09:47:03.498Z,33.75
2023-05-23T09:48:03.488Z,33.75
2023-05-23T09:49:03.446Z,33.75
2023-05-23T09:50:03.422Z,33.75
2023-05-23T09:51:03.692Z,33.75
2023-05-23T09:52:03.435Z,33.75
2023-05-23T09:53:03.388Z,33.75
2023-05-23T09:54:03.373Z,39.38
2023-05-23T09:55:03.354Z,39.38
2023-05-23T09:56:03.384Z,39.38
2023-05-23T09:57:03.362Z,39.38
2023-05-23T09:58:03.364Z,39.38
2023-05-23T09:59:03.314Z,39.38
2023-05-23T10:00:03.308Z,39.38
2023-05-23T10:01:03.391Z,39.38
2023-05-23T10:02:03.282Z,39.38
2023-05-23T10:03:03.315Z,45.00
2023-05-23T10:04:03.293Z,45.00
2023-05-23T10:05:03.253Z,45.00
2023-05-23T10:06:03.231Z,39.38
2023-05-23T10:07:03.249Z,39.38
2023-05-23T10:08:03.229Z,39.38
2023-05-23T10:09:03.202Z,39.38
2023-05-23T10:10:03.191Z,39.38
2023-05-23T10:11:03.181Z,33.75
2023-05-23T10:12:03.166Z,33.75
2023-05-23T10:13:03.172Z,33.75
2023-05-23T10:14:03.154Z,33.75
2023-05-23T10:15:03.133Z,33.75
2023-05-23T10:16:03.166Z,33.75
2023-05-23T10:17:03.162Z,33.75
2023-05-23T10:18:03.178Z,33.75
2023-05-23T10:19:03.142Z,33.75
2023-05-23T10:20:03.087Z,33.75
2023-05-23T10:21:03.063Z,33.75
2023-05-23T10:22:03.061Z,39.38
2023-05-23T10:23:03.090Z,39.38
2023-05-23T10:24:03.052Z,45.00
2023-05-23T10:25:03.013Z,50.62
2023-05-23T10:26:03.006Z,56.25
2023-05-23T10:27:02.988Z,61.88
2023-05-23T10:28:04.496Z,67.50
2023-05-23T10:29:02.981Z,73.12
2023-05-23T10:30:02.970Z,90.00
2023-05-23T10:31:03.029Z,140.62
2023-05-23T10:32:02.944Z,140.62
2023-05-23T10:33:03.086Z,95.62
2023-05-23T10:34:02.932Z,101.25
2023-05-23T10:35:02.920Z,73.12
2023-05-23T10:36:02.947Z,90.00
2023-05-23T10:37:02.877Z,146.25
2023-05-23T10:38:02.875Z,146.25
2023-05-23T10:39:02.865Z,73.12
2023-05-23T10:40:02.846Z,135.00
2023-05-23T10:41:02.846Z,118.12
2023-05-23T10:42:02.825Z,135.00
2023-05-23T10:43:02.808Z,84.38
2023-05-23T10:44:02.816Z,95.62
2023-05-23T10:45:02.780Z,106.88
2023-05-23T10:46:02.920Z,78.75
2023-05-23T10:47:02.969Z,78.75
2023-05-23T10:48:02.791Z,73.12
2023-05-23T10:49:02.774Z,67.50
2023-05-23T10:50:02.732Z,67.50
2023-05-23T10:51:02.716Z,61.88
2023-05-23T10:52:02.715Z,56.25
2023-05-23T10:53:02.689Z,56.25
2023-05-23T10:54:02.686Z,56.25
2023-05-23T10:55:02.715Z,67.50
2023-05-23T10:56:02.663Z,56.25
2023-05-23T10:57:02.665Z,56.25
2023-05-23T10:58:02.640Z,112.50
2023-05-23T10:59:02.628Z,112.50
2023-05-23T11:00:02.615Z,118.12
2023-05-23T11:01:02.650Z,118.12
2023-05-23T11:02:02.643Z,129.38
2023-05-23T11:03:02.647Z,129.38
2023-05-23T11:04:02.665Z,78.75
2023-05-23T11:05:02.660Z,129.38
2023-05-23T11:06:02.555Z,101.25
2023-05-23T11:07:02.548Z,84.38
2023-05-23T11:08:02.529Z,78.75
2023-05-23T11:09:03.299Z,73.12
2023-05-23T11:10:02.503Z,67.50
2023-05-23T11:11:02.484Z,73.12
2023-05-23T11:12:02.517Z,106.88
2023-05-23T11:13:02.526Z,112.50
2023-05-23T11:14:02.479Z,101.25
2023-05-23T11:15:02.461Z,78.75
2023-05-23T11:16:02.479Z,78.75
2023-05-23T11:17:02.448Z,73.12
2023-05-23T11:18:02.478Z,61.88
2023-05-23T11:19:02.417Z,73.12
2023-05-23T11:20:02.390Z,78.75
2023-05-23T11:21:02.413Z,78.75
2023-05-23T11:22:02.384Z,61.88
2023-05-23T11:23:02.377Z,61.88
2023-05-23T11:24:02.363Z,67.50
2023-05-23T11:25:02.327Z,67.50
2023-05-23T11:26:02.325Z,61.88
2023-05-23T11:27:02.323Z,84.38
2023-05-23T11:28:02.293Z,67.50
2023-05-23T11:29:02.288Z,56.25
2023-05-23T11:30:02.298Z,61.88
2023-05-23T11:31:02.288Z,56.25
2023-05-23T11:32:02.282Z,56.25
2023-05-23T11:33:02.355Z,56.25
2023-05-23T11:34:02.234Z,56.25
2023-05-23T11:35:02.229Z,56.25
2023-05-23T11:36:02.201Z,56.25
2023-05-23T11:37:02.211Z,50.62
2023-05-23T11:38:02.213Z,50.62
2023-05-23T11:39:02.184Z,56.25
2023-05-23T11:40:02.163Z,84.38
2023-05-23T11:41:02.147Z,101.25
2023-05-23T11:42:02.150Z,101.25
2023-05-23T11:43:02.156Z,95.62
2023-05-23T11:44:02.135Z,101.25
2023-05-23T11:45:02.099Z,101.25
2023-05-23T11:46:02.126Z,95.62
2023-05-23T11:47:02.110Z,78.75
2023-05-23T11:48:02.172Z,101.25
2023-05-23T11:49:02.091Z,101.25
2023-05-23T11:50:02.080Z,101.25
2023-05-23T11:51:02.045Z,73.12
2023-05-23T11:52:02.034Z,67.50
2023-05-23T11:53:02.046Z,61.88
2023-05-23T11:54:02.045Z,61.88
2023-05-23T11:55:03.950Z,61.88
2023-05-23T11:56:01.999Z,61.88
2023-05-23T11:57:01.983Z,67.50
2023-05-23T11:58:01.966Z,67.50
2023-05-23T11:59:01.941Z,61.88
2023-05-23T12:00:01.937Z,73.12
2023-05-23T12:01:01.932Z,95.62
2023-05-23T12:02:01.929Z,95.62
2023-05-23T12:03:01.938Z,95.62
2023-05-23T12:04:01.969Z,101.25
2023-05-23T12:05:01.933Z,90.00
2023-05-23T12:06:01.928Z,95.62
2023-05-23T12:07:01.906Z,90.00
2023-05-23T12:08:01.843Z,95.62
2023-05-23T12:09:01.849Z,67.50
2023-05-23T12:10:01.816Z,67.50
2023-05-23T12:11:01.810Z,61.88
2023-05-23T12:12:01.803Z,90.00
2023-05-23T12:13:01.798Z,90.00
2023-05-23T12:14:01.780Z,90.00
2023-05-23T12:15:01.765Z,90.00
2023-05-23T12:16:01.901Z,90.00
2023-05-23T12:17:01.749Z,90.00
2023-05-23T12:18:02.266Z,95.62
2023-05-23T12:19:01.752Z,95.62
2023-05-23T12:20:01.703Z,95.62
2023-05-23T12:21:01.691Z,67.50
2023-05-23T12:22:01.736Z,61.88
2023-05-23T12:23:01.670Z,61.88
2023-05-23T12:24:01.663Z,73.12
2023-05-23T12:25:01.664Z,61.88
2023-05-23T12:26:01.672Z,67.50
2023-05-23T12:27:01.645Z,67.50
2023-05-23T12:28:01.622Z,56.25
2023-05-23T12:29:01.614Z,56.25
2023-05-23T12:30:01.637Z,56.25
2023-05-23T12:31:01.693Z,67.50
2023-05-23T12:32:01.626Z,95.62
2023-05-23T12:33:01.619Z,95.62
2023-05-23T12:34:01.565Z,95.62
2023-05-23T12:35:01.560Z,84.38
2023-05-23T12:36:01.551Z,56.25
2023-05-23T12:37:17.948Z,67.50
2023-05-23T12:38:02.520Z,61.88
2023-05-23T12:39:01.504Z,61.88
2023-05-23T12:40:01.521Z,56.25
2023-05-23T12:41:01.493Z,56.25
2023-05-23T12:42:01.468Z,50.62
2023-05-23T12:43:01.464Z,50.62
2023-05-23T12:44:01.452Z,56.25
2023-05-23T12:45:01.439Z,61.88
2023-05-23T12:46:01.417Z,61.88
2023-05-23T12:47:01.552Z,56.25
2023-05-23T12:48:01.462Z,90.00
2023-05-23T12:49:01.378Z,61.88
2023-05-23T12:50:01.366Z,61.88
2023-05-23T12:51:01.360Z,67.50
2023-05-23T12:52:01.350Z,61.88
2023-05-23T12:53:01.335Z,95.62
2023-05-23T12:54:01.348Z,90.00
2023-05-23T12:55:01.326Z,90.00
2023-05-23T12:56:01.299Z,90.00
2023-05-23T12:57:01.310Z,84.38
2023-05-23T12:58:01.328Z,78.75
2023-05-23T12:59:01.271Z,78.75
2023-05-23T13:00:01.266Z,56.25
2023-05-23T13:01:01.373Z,56.25
2023-05-23T13:02:01.228Z,73.12
2023-05-23T13:03:01.283Z,90.00
2023-05-23T13:04:01.283Z,84.38
2023-05-23T13:05:01.208Z,61.88
2023-05-23T13:06:01.219Z,61.88
2023-05-23T13:07:01.177Z,61.88